Time;durP1;ratioP1;P1;durP2;ratioP2;P2;SDS_P1;SDS_P2;PMS_P1;PMS_P2;Temp;Humidity;BMP_temperature;BMP_pressure;BME280_temperature;BME280_humidity;BME280_pressure;Samples;Min_cycle;Max_cycle;Signal;HPM_P1;HPM_P2
2022/06/07 00:01:33;;;;;;;4.55;3.17;;;;;;;7.13;81.48;100410.00;5036514;28;20050;-60
2022/06/07 00:04:04;;;;;;;3.25;2.60;;;;;;;6.97;79.63;100386.63;5036503;28;20053;-60
2022/06/07 00:06:34;;;;;;;3.53;2.65;;;;;;;7.15;79.77;100412.63;5036415;28;20063;-60
2022/06/07 00:09:06;;;;;;;6.95;2.78;;;;;;;7.23;79.38;100415.22;5036640;28;20124;-60
2022/06/07 00:11:37;;;;;;;5.00;3.00;;;;;;;7.38;79.46;100409.13;5036150;28;20080;-60
2022/06/07 00:14:07;;;;;;;6.15;2.88;;;;;;;7.57;78.98;100410.84;5036260;28;20073;-60
2022/06/07 00:16:38;;;;;;;4.55;3.13;;;;;;;7.55;78.08;100412.56;5036452;28;20395;-60
2022/06/07 00:19:09;;;;;;;9.77;3.20;;;;;;;7.67;76.93;100406.50;5036285;28;20360;-59
2022/06/07 00:21:39;;;;;;;3.20;2.63;;;;;;;7.64;76.82;100412.56;5036894;28;20061;-60
2022/06/07 00:24:11;;;;;;;5.63;3.42;;;;;;;7.59;77.69;100398.72;5039877;28;20057;-60
2022/06/07 00:27:06;;;;;;;12.07;3.38;;;;;;;7.84;77.66;100403.81;5040051;28;20052;-59
2022/06/07 00:30:00;;;;;;;4.13;3.10;;;;;;;7.86;77.18;100407.28;5039684;28;20099;-59
2022/06/07 00:32:55;;;;;;;10.80;3.60;;;;;;;7.97;77.37;100395.13;5020105;28;20073;-59
2022/06/07 00:35:25;;;;;;;6.13;2.70;;;;;;;8.25;76.78;100395.00;5019904;28;20054;-59
2022/06/07 00:37:56;;;;;;;3.58;2.67;;;;;;;8.43;74.50;100398.41;5019973;28;20056;-59
2022/06/07 00:40:28;;;;;;;6.90;2.83;;;;;;;8.51;75.41;100372.34;5021736;28;20058;-59
2022/06/07 00:42:59;;;;;;;4.05;2.15;;;;;;;8.70;72.74;100393.06;5036093;28;20045;-59
2022/06/07 00:45:30;;;;;;;4.22;2.58;;;;;;;8.74;73.71;100394.78;5039691;28;20068;-59
2022/06/07 00:48:01;;;;;;;5.13;2.78;;;;;;;9.07;74.37;100402.31;5039731;28;20115;-59
2022/06/07 00:50:38;;;;;;;3.60;2.88;;;;;;;9.14;72.47;100357.97;5038073;28;20053;-59
2022/06/07 00:53:22;;;;;;;3.17;2.22;;;;;;;9.57;70.66;100388.84;5035321;28;20061;-59
2022/06/07 00:55:54;;;;;;;3.53;2.42;;;;;;;9.57;72.33;100378.41;5039443;28;20056;-59
2022/06/07 00:58:28;;;;;;;5.13;2.92;;;;;;;9.69;70.69;100386.13;5039323;28;20247;-59
2022/06/07 01:00:59;;;;;;;4.13;2.78;;;;;;;9.80;69.77;100381.63;5034079;28;20060;-59
2022/06/07 01:03:30;;;;;;;4.38;2.65;;;;;;;10.02;69.49;100376.16;5019763;28;20053;-59
2022/06/07 01:10:43;;;;;;;5.65;3.00;;;;;;;9.88;68.46;100373.72;5019591;28;20061;-58
2022/06/07 01:11:40;;;;;;;6.05;2.97;;;;;;;9.75;69.24;100373.00;5030672;28;20115;-58
2022/06/07 01:14:10;;;;;;;8.95;3.20;;;;;;;9.78;70.44;100372.94;5038479;28;20045;-59
2022/06/07 01:16:41;;;;;;;5.15;2.90;;;;;;;9.96;70.22;100371.00;5033432;28;20348;-59
2022/06/07 01:19:11;;;;;;;2.83;2.20;;;;;;;9.93;69.13;100372.78;5037322;28;20057;-59
2022/06/07 01:21:45;;;;;;;5.25;2.75;;;;;;;9.98;69.53;100369.25;5038969;28;20049;-58
2022/06/07 01:24:16;;;;;;;4.80;3.17;;;;;;;10.28;71.89;100368.91;5038851;28;20091;-58
2022/06/07 01:26:46;;;;;;;14.48;2.97;;;;;;;10.25;70.30;100362.81;5038898;28;20092;-58
2022/06/07 01:29:17;;;;;;;3.88;2.55;;;;;;;10.34;70.27;100358.34;5038765;28;20057;-58
2022/06/07 01:31:47;;;;;;;4.28;2.75;;;;;;;10.57;68.64;100357.16;5038221;28;20061;-58
2022/06/07 01:34:18;;;;;;;5.22;2.90;;;;;;;10.44;68.58;100316.44;5037906;28;20213;-59
2022/06/07 01:36:50;;;;;;;3.92;3.03;;;;;;;10.70;68.31;100356.09;5028225;28;20272;-58
2022/06/07 01:42:08;;;;;;;8.43;2.92;;;;;;;10.99;68.64;100352.16;5027005;28;20061;-59
2022/06/07 01:44:41;;;;;;;3.85;3.00;;;;;;;10.98;67.49;100319.03;5026634;28;20244;-58
2022/06/07 01:47:13;;;;;;;5.90;2.90;;;;;;;11.23;66.90;100356.97;5025651;28;20108;-59
2022/06/07 01:49:44;;;;;;;6.28;2.83;;;;;;;11.26;67.64;100349.94;5028534;28;20053;-59
2022/06/07 01:52:19;;;;;;;4.13;2.88;;;;;;;11.37;66.60;100353.22;5027833;28;20060;-59
2022/06/07 01:54:51;;;;;;;4.90;2.78;;;;;;;11.58;66.70;100358.09;5028859;28;20077;-59
2022/06/07 01:57:22;;;;;;;3.80;2.22;;;;;;;11.18;64.05;100264.66;5020631;28;20068;-58
2022/06/07 01:59:54;;;;;;;6.43;2.47;;;;;;;11.97;64.64;100355.59;5018584;28;20049;-59
2022/06/07 02:02:27;;;;;;;11.15;2.63;;;;;;;12.16;63.96;100360.47;5023852;28;20112;-58
2022/06/07 02:04:58;;;;;;;3.97;2.80;;;;;;;12.15;64.56;100358.72;5026171;28;20059;-61
2022/06/07 02:07:31;;;;;;;3.90;2.80;;;;;;;12.11;63.28;100357.06;5028856;28;20109;-60
2022/06/07 02:10:01;;;;;;;4.93;2.92;;;;;;;12.09;64.61;100359.72;5026175;28;20049;-59
2022/06/07 02:12:31;;;;;;;5.65;2.47;;;;;;;12.11;64.10;100346.59;5026870;28;20060;-58
2022/06/07 02:15:03;;;;;;;2.80;2.45;;;;;;;12.32;63.15;100340.88;5028060;28;20045;-59
2022/06/07 02:17:33;;;;;;;5.55;2.90;;;;;;;12.37;63.48;100349.47;5027368;28;20045;-59
2022/06/07 02:20:04;;;;;;;6.68;2.75;;;;;;;12.60;60.45;100345.47;5028153;28;20060;-59
2022/06/07 02:22:36;;;;;;;6.82;2.67;;;;;;;12.52;60.25;100343.91;5027453;28;20041;-60
2022/06/07 02:25:07;;;;;;;8.95;2.65;;;;;;;12.68;61.46;100339.16;5027318;28;20049;-60
2022/06/07 02:27:38;;;;;;;3.95;2.53;;;;;;;12.83;60.63;100337.94;5026488;28;20054;-59
2022/06/07 02:30:11;;;;;;;6.35;2.70;;;;;;;12.95;60.91;100335.03;5031886;28;20059;-59
2022/06/07 02:32:42;;;;;;;3.50;2.60;;;;;;;13.24;60.00;100341.28;5036231;28;20072;-59
2022/06/07 02:35:13;;;;;;;2.92;2.45;;;;;;;13.29;59.46;100336.78;5035258;28;20328;-59
2022/06/07 02:37:45;;;;;;;5.93;2.63;;;;;;;13.41;59.52;100334.75;5032901;28;20065;-58
2022/06/07 02:40:16;;;;;;;7.35;2.70;;;;;;;13.27;60.46;100335.13;5017802;28;20046;-59
2022/06/07 02:42:46;;;;;;;7.38;2.72;;;;;;;13.47;59.93;100337.22;5033507;28;20071;-59
2022/06/07 02:45:17;;;;;;;3.45;2.50;;;;;;;13.43;59.44;100330.31;5037330;28;20058;-59
2022/06/07 02:47:47;;;;;;;3.55;2.72;;;;;;;13.40;56.67;100333.03;5025399;28;20317;-60
2022/06/07 02:50:18;;;;;;;6.40;3.15;;;;;;;13.45;59.33;100333.75;5017744;28;20072;-59
2022/06/07 02:52:50;;;;;;;4.97;2.88;;;;;;;13.47;57.59;100324.94;5017541;28;20140;-60
2022/06/07 02:55:21;;;;;;;7.57;3.00;;;;;;;13.39;58.57;100332.16;5017350;28;20080;-59
2022/06/07 02:57:52;;;;;;;4.93;2.70;;;;;;;13.37;57.62;100326.94;5033214;28;20067;-59
2022/06/07 03:00:23;;;;;;;9.27;3.40;;;;;;;13.72;59.04;100330.38;5036444;28;20120;-61
2022/06/07 03:02:53;;;;;;;7.05;3.20;;;;;;;13.79;57.60;100313.53;5037390;28;20049;-60
2022/06/07 03:05:24;;;;;;;6.45;3.30;;;;;;;13.78;58.64;100314.44;5036537;28;20474;-59
2022/06/07 03:07:56;;;;;;;4.88;3.22;;;;;;;13.82;58.28;100310.81;5035208;28;20076;-59
2022/06/07 03:10:26;;;;;;;7.10;3.50;;;;;;;13.93;57.61;100304.41;5027918;28;20057;-58
2022/06/07 03:12:57;;;;;;;5.85;3.42;;;;;;;14.09;58.43;100308.28;5033968;28;20057;-58
2022/06/07 03:15:28;;;;;;;6.70;3.17;;;;;;;14.33;57.79;100306.69;5028796;28;20506;-59
2022/06/07 03:17:59;;;;;;;8.20;3.50;;;;;;;14.31;56.50;100297.13;5025991;28;20063;-59
2022/06/07 03:20:29;;;;;;;7.93;3.50;;;;;;;14.30;56.14;100290.97;5025408;28;20423;-58
2022/06/07 03:23:01;;;;;;;13.40;3.00;;;;;;;14.10;55.76;100288.97;5018408;28;20045;-59
2022/06/07 03:25:31;;;;;;;6.93;3.00;;;;;;;14.26;56.32;100283.28;5032246;28;20276;-59
2022/06/07 03:28:03;;;;;;;5.50;3.30;;;;;;;14.38;56.73;100289.00;5036385;28;20064;-60
2022/06/07 03:30:33;;;;;;;7.17;3.57;;;;;;;14.55;56.38;100275.34;5028598;28;20041;-58
2022/06/07 03:33:04;;;;;;;7.50;3.30;;;;;;;14.42;55.50;100268.72;5017726;28;20289;-59
2022/06/07 03:35:35;;;;;;;5.70;3.20;;;;;;;14.35;55.49;100277.69;5031121;28;20308;-59
2022/06/07 03:38:07;;;;;;;7.73;3.13;;;;;;;14.36;55.35;100279.44;5036376;28;20284;-58
2022/06/07 03:40:46;;;;;;;6.10;3.92;;;;;;;14.36;57.14;100266.31;5023814;28;20344;-59
2022/06/07 03:43:17;;;;;;;9.15;3.65;;;;;;;14.49;56.77;100270.25;5013626;28;20080;-61
2022/06/07 03:45:47;;;;;;;7.23;3.30;;;;;;;14.50;55.24;100277.22;5015555;28;20056;-59
2022/06/07 03:48:18;;;;;;;6.00;3.50;;;;;;;14.26;54.89;100270.13;5016550;28;20327;-58
2022/06/07 03:50:48;;;;;;;7.25;3.67;;;;;;;14.35;57.57;100268.06;5016792;28;20573;-59
2022/06/07 03:53:20;;;;;;;6.00;4.00;;;;;;;14.39;56.63;100263.56;5016920;28;20109;-59
2022/06/07 03:55:54;;;;;;;8.97;3.70;;;;;;;14.45;57.48;100273.88;5016419;28;20314;-58
2022/06/07 03:58:24;;;;;;;8.40;3.27;;;;;;;14.64;55.32;100269.78;5024503;28;20293;-59
2022/06/07 04:00:57;;;;;;;9.03;3.57;;;;;;;14.50;55.52;100266.69;5026730;28;20276;-59
2022/06/07 04:03:28;;;;;;;5.17;3.40;;;;;;;14.44;56.16;100266.91;5026743;28;20285;-59
2022/06/07 04:05:59;;;;;;;7.13;3.67;;;;;;;14.28;58.33;100265.66;5027626;28;20296;-58
2022/06/07 04:08:32;;;;;;;5.47;3.47;;;;;;;14.28;57.93;100256.03;5027050;28;20358;-59
2022/06/07 04:11:03;;;;;;;8.52;3.45;;;;;;;14.29;57.47;100262.16;5026965;28;20268;-59
2022/06/07 04:13:34;;;;;;;7.07;3.57;;;;;;;14.19;55.84;100267.69;5026819;28;20296;-59
2022/06/07 04:16:07;;;;;;;14.83;4.70;;;;;;;14.10;58.16;100252.19;5025917;28;20388;-59
2022/06/07 04:18:38;;;;;;;8.37;3.90;;;;;;;13.97;56.52;100261.34;5026285;28;20296;-59
2022/06/07 04:21:09;;;;;;;14.93;2.95;;;;;;;13.93;56.97;100249.25;5026686;28;20349;-59
2022/06/07 04:23:41;;;;;;;10.07;4.13;;;;;;;13.82;59.10;100194.41;5025233;28;20377;-60
2022/06/07 04:26:19;;;;;;;;;;;;;;;14.27;58.37;100248.19;5027344;28;20142;-59
2022/06/07 04:28:50;;;;;;;6.77;3.33;;;;;;;14.55;57.62;100249.06;5026149;28;19935;-59
2022/06/07 04:31:23;;;;;;;12.35;3.58;;;;;;;14.47;57.48;100240.50;5025886;28;20281;-60
2022/06/07 04:33:57;;;;;;;10.50;3.40;;;;;;;14.53;57.73;100250.88;5026269;28;20061;-61
2022/06/07 04:36:29;;;;;;;7.60;3.67;;;;;;;14.60;57.36;100238.34;5026184;28;20702;-59
2022/06/07 04:39:04;;;;;;;12.30;3.57;;;;;;;14.51;56.66;100236.88;5026310;28;20603;-58
2022/06/07 04:41:35;;;;;;;7.43;3.47;;;;;;;14.44;57.38;100245.88;5026150;28;20288;-59
2022/06/07 04:44:05;;;;;;;8.95;4.00;;;;;;;14.42;59.16;100247.69;5025533;28;20291;-60
2022/06/07 04:46:36;;;;;;;8.90;3.60;;;;;;;14.42;56.29;100247.69;5026972;28;20398;-60
2022/06/07 04:49:07;;;;;;;7.60;3.57;;;;;;;14.21;56.01;100244.84;5027157;28;20299;-60
2022/06/07 04:51:39;;;;;;;6.17;3.20;;;;;;;14.06;56.75;100240.06;5025408;28;20526;-60
2022/06/07 04:54:12;;;;;;;13.80;3.60;;;;;;;14.11;56.87;100243.41;5025486;28;20301;-60
2022/06/07 04:56:42;;;;;;;5.50;3.17;;;;;;;13.78;57.40;100235.66;5023629;28;20125;-60
2022/06/07 04:59:13;;;;;;;4.00;3.20;;;;;;;13.38;60.44;100168.59;5024527;28;20495;-60
2022/06/07 05:01:45;;;;;;;6.07;2.90;;;;;;;13.48;59.10;100152.53;5026227;28;20510;-59
2022/06/07 05:04:16;;;;;;;5.70;2.97;;;;;;;14.27;58.57;100232.41;5026024;28;20550;-60
2022/06/07 05:06:47;;;;;;;9.60;3.65;;;;;;;14.14;55.88;100231.94;5025816;28;20057;-60
2022/06/07 05:09:22;;;;;;;7.65;3.75;;;;;;;13.96;56.32;100222.88;5023404;28;20045;-59
2022/06/07 05:11:54;;;;;;;4.15;3.20;;;;;;;14.21;57.81;100234.31;5026800;28;20053;-60
2022/06/07 05:14:24;;;;;;;8.15;2.72;;;;;;;14.12;57.06;100229.34;5024280;28;20084;-60
2022/06/07 05:16:55;;;;;;;6.82;3.00;;;;;;;13.94;58.27;100229.94;5025519;28;20053;-60
2022/06/07 05:19:25;;;;;;;9.90;3.40;;;;;;;14.12;58.72;100233.75;5026156;28;20144;-60
2022/06/07 05:21:55;;;;;;;7.73;3.20;;;;;;;14.18;58.00;100223.94;5024220;28;20998;-60
2022/06/07 05:24:27;;;;;;;3.72;2.65;;;;;;;14.22;57.61;100233.41;5024221;28;20296;-60
2022/06/07 05:27:01;;;;;;;8.15;2.88;;;;;;;14.16;57.73;100233.63;5025198;28;20050;-60
2022/06/07 05:29:37;;;;;;;5.85;2.60;;;;;;;14.16;57.18;100225.72;5025468;28;20049;-59
2022/06/07 05:32:08;;;;;;;3.73;2.87;;;;;;;14.48;57.57;100236.97;5025478;28;20073;-60
2022/06/07 05:34:38;;;;;;;5.75;3.65;;;;;;;14.53;55.62;100245.63;5025307;28;20331;-60
2022/06/07 05:37:12;;;;;;;5.63;2.47;;;;;;;14.47;56.46;100235.25;5024604;28;20061;-59
2022/06/07 05:39:45;;;;;;;4.40;2.33;;;;;;;13.86;56.17;100140.03;5025335;28;20530;-60
2022/06/07 05:42:17;;;;;;;6.18;2.40;;;;;;;14.50;55.21;100235.13;5025774;28;20284;-60
2022/06/07 05:44:47;;;;;;;4.23;2.00;;;;;;;14.38;56.07;100241.69;5025061;28;20046;-60
2022/06/07 05:47:18;;;;;;;12.03;2.50;;;;;;;14.41;55.92;100240.72;5024984;28;20378;-60
2022/06/07 05:49:48;;;;;;;5.38;2.58;;;;;;;14.25;55.71;100240.34;5024906;28;20284;-59
2022/06/07 05:52:19;;;;;;;2.97;2.40;;;;;;;14.29;56.48;100243.75;5024391;28;20052;-60
2022/06/07 05:54:51;;;;;;;5.47;2.30;;;;;;;14.33;54.11;100242.75;5024261;28;20371;-59
2022/06/07 05:57:21;;;;;;;4.33;2.33;;;;;;;14.36;55.60;100240.00;5024446;28;20327;-59
2022/06/07 05:59:52;;;;;;;10.10;2.10;;;;;;;14.33;54.44;100238.34;5024746;28;20292;-59
2022/06/07 06:02:22;;;;;;;13.73;2.83;;;;;;;14.41;56.44;100238.09;5024638;28;20300;-59
2022/06/07 06:04:53;;;;;;;4.17;2.30;;;;;;;14.00;54.38;100246.38;5024854;28;20670;-59
2022/06/07 06:07:23;;;;;;;2.43;2.00;;;;;;;13.99;55.74;100243.78;5024777;28;20288;-59
2022/06/07 06:12:42;;;;;;;2.90;2.08;;;;;;;13.99;55.38;100243.78;5023772;28;20049;-59
2022/06/07 06:15:12;;;;;;;4.37;2.40;;;;;;;14.24;56.71;100234.22;5024771;28;20077;-60
2022/06/07 06:17:43;;;;;;;7.57;2.80;;;;;;;14.50;55.20;100245.66;5024546;28;20316;-60
2022/06/07 06:20:14;;;;;;;3.37;2.67;;;;;;;14.45;53.41;100231.81;5026055;28;20052;-60
2022/06/07 06:22:44;;;;;;;6.03;3.13;;;;;;;14.55;53.77;100243.81;5023824;28;20288;-60
2022/06/07 06:25:16;;;;;;;4.63;2.33;;;;;;;14.22;53.11;100233.41;5024382;28;20288;-59
2022/06/07 06:27:47;;;;;;;13.70;2.60;;;;;;;14.14;54.94;100232.81;5024803;28;20288;-60
2022/06/07 06:30:18;;;;;;;4.13;2.20;;;;;;;14.27;53.77;100211.38;5023751;28;20866;-60
2022/06/07 06:32:48;;;;;;;4.53;2.53;;;;;;;14.26;53.33;100233.34;5024223;28;20285;-60
2022/06/07 06:35:19;;;;;;;10.57;2.67;;;;;;;14.01;53.83;100234.97;5024100;28;20077;-60
2022/06/07 06:37:49;;;;;;;7.93;1.88;;;;;;;14.08;53.35;100230.38;5024180;28;20705;-60
2022/06/07 06:40:21;;;;;;;3.83;2.07;;;;;;;14.11;54.01;100227.66;5024381;28;20054;-60
2022/06/07 06:42:52;;;;;;;4.20;2.20;;;;;;;14.06;52.96;100202.44;5023795;28;20376;-60
2022/06/07 06:45:22;;;;;;;4.83;2.40;;;;;;;14.18;53.98;100233.59;5022484;28;20342;-60
2022/06/07 06:47:53;;;;;;;11.32;2.53;;;;;;;14.19;54.71;100228.25;5023322;28;20590;-59
2022/06/07 06:50:23;;;;;;;8.43;2.13;;;;;;;13.98;53.77;100228.94;5022538;28;20103;-61
2022/06/07 06:52:53;;;;;;;7.72;2.20;;;;;;;14.00;53.72;100240.25;5023396;28;20083;-60
2022/06/07 06:55:25;;;;;;;18.55;2.88;;;;;;;13.92;54.51;100242.25;5023833;28;20057;-59
2022/06/07 06:57:56;;;;;;;25.42;3.40;;;;;;;13.73;55.16;100227.06;5022469;28;20065;-60
2022/06/07 07:00:26;;;;;;;7.28;2.13;;;;;;;13.65;54.43;100234.28;5021541;28;20037;-59
2022/06/07 07:02:57;;;;;;;7.47;2.13;;;;;;;13.71;55.96;100228.03;5021296;28;20050;-61
2022/06/07 07:05:35;;;;;;;8.00;1.80;;;;;;;13.52;55.65;100235.56;5021611;28;20124;-60
2022/06/07 07:08:06;;;;;;;11.35;2.13;;;;;;;13.26;55.62;100233.66;5020911;28;20072;-60
2022/06/07 07:10:38;;;;;;;4.47;2.17;;;;;;;13.21;55.87;100228.53;5021037;28;20060;-60
2022/06/07 07:13:08;;;;;;;6.78;1.90;;;;;;;13.18;56.61;100223.38;5021863;28;20080;-59
2022/06/07 07:15:38;;;;;;;9.48;2.10;;;;;;;13.18;56.29;100228.63;5021729;28;20356;-60
2022/06/07 07:18:10;;;;;;;5.50;2.03;;;;;;;13.04;55.86;100236.00;5017702;28;20068;-59
2022/06/07 07:20:41;;;;;;;4.78;1.95;;;;;;;12.82;55.38;100231.31;5021012;28;20092;-60
2022/06/07 07:23:11;;;;;;;4.95;2.10;;;;;;;12.76;55.87;100230.63;5021791;28;20247;-59
2022/06/07 07:25:43;;;;;;;9.65;2.05;;;;;;;12.62;55.40;100241.47;5019157;28;20109;-59
2022/06/07 07:28:19;;;;;;;4.40;1.70;;;;;;;12.73;56.31;100232.44;5022671;28;20143;-60
2022/06/07 07:30:50;;;;;;;6.95;2.10;;;;;;;12.91;56.32;100231.09;5021104;28;20053;-60
2022/06/07 07:33:20;;;;;;;13.50;2.58;;;;;;;12.92;56.23;100231.94;5019381;28;20058;-59
2022/06/07 07:35:52;;;;;;;7.68;1.73;;;;;;;12.91;55.78;100236.31;5021295;28;20057;-59
2022/06/07 07:38:23;;;;;;;10.20;2.15;;;;;;;12.80;56.17;100225.25;5020683;28;20092;-59
2022/06/07 07:40:55;;;;;;;3.70;2.38;;;;;;;12.63;55.56;100235.31;5021910;28;20060;-59
2022/06/07 07:43:26;;;;;;;6.18;2.10;;;;;;;12.57;56.21;100240.72;5021259;28;20121;-60
2022/06/07 07:45:57;;;;;;;8.35;1.85;;;;;;;12.39;56.52;100227.16;5021867;28;20152;-59
2022/06/07 07:48:28;;;;;;;4.60;1.80;;;;;;;12.45;56.95;100234.84;5021531;28;20060;-60
2022/06/07 07:51:04;;;;;;;5.38;2.05;;;;;;;12.29;56.59;100236.16;5021519;28;20347;-59
2022/06/07 07:53:36;;;;;;;3.17;1.50;;;;;;;12.07;56.47;100244.50;5020675;28;20088;-60
2022/06/07 07:58:54;;;;;;;3.00;1.73;;;;;;;11.62;57.88;100213.16;5101320;27;20386;-59
2022/06/07 08:01:26;;;;;;;2.25;1.80;;;;;;;11.71;58.21;100247.91;5104256;28;20047;-59
2022/06/07 08:03:59;;;;;;;2.70;1.50;;;;;;;11.70;58.97;100246.16;5114753;28;20086;-59
2022/06/07 08:06:31;;;;;;;4.68;1.70;;;;;;;11.59;58.99;100249.88;5114565;28;20048;-59
2022/06/07 08:09:08;;;;;;;5.88;1.80;;;;;;;11.44;59.26;100226.66;5115527;28;20115;-59
2022/06/07 08:11:56;;;;;;;3.90;1.60;;;;;;;11.62;58.77;100255.03;5116646;28;20071;-59
2022/06/07 08:14:32;;;;;;;3.38;1.52;;;;;;;11.39;58.31;100254.66;5109826;28;20628;-59
2022/06/07 08:17:13;;;;;;;5.80;2.15;;;;;;;11.16;58.99;100242.88;5104713;28;20255;-59
2022/06/07 08:19:44;;;;;;;2.90;1.40;;;;;;;11.15;59.59;100238.53;5109944;28;20428;-60
2022/06/07 08:22:15;;;;;;;7.22;1.73;;;;;;;11.22;59.59;100250.59;5102322;28;20055;-59
2022/06/07 08:24:45;;;;;;;8.35;2.08;;;;;;;10.93;60.12;100216.28;5108162;28;20044;-59
2022/06/07 08:27:16;;;;;;;10.35;1.65;;;;;;;11.07;60.20;100244.81;5093705;28;20115;-60
2022/06/07 08:29:48;;;;;;;11.30;2.28;;;;;;;10.72;60.65;100202.72;5095232;28;20036;-60
2022/06/07 08:32:18;;;;;;;7.28;1.52;;;;;;;10.85;60.73;100257.41;5092976;28;20067;-61
2022/06/07 08:37:37;;;;;;;10.23;1.83;;;;;;;10.57;61.97;100256.13;5093462;28;20070;-60
2022/06/07 08:40:13;;;;;;;3.10;1.60;;;;;;;10.41;62.25;100245.94;5104875;28;20536;-61
2022/06/07 08:42:52;;;;;;;5.22;1.50;;;;;;;10.00;62.80;100226.53;5095098;28;20318;-60
2022/06/07 08:45:28;;;;;;;14.35;1.60;;;;;;;10.09;63.66;100262.94;5113423;28;20063;-60
2022/06/07 08:48:07;;;;;;;11.75;1.77;;;;;;;9.74;63.84;100234.72;5111633;28;20266;-60
2022/06/07 08:50:42;;;;;;;9.27;1.85;;;;;;;10.04;64.00;100269.97;5103371;28;20060;-60
2022/06/07 08:53:16;;;;;;;7.13;2.83;;;;;;;9.92;63.77;100240.53;5112486;28;20114;-62
2022/06/07 08:55:50;;;;;;;5.25;2.55;;;;;;;10.00;63.96;100257.84;5107222;28;20062;-59
2022/06/07 08:58:34;;;;;;;8.27;2.08;;;;;;;9.94;63.65;100264.88;5112690;28;20056;-59
2022/06/07 09:01:24;;;;;;;9.77;1.90;;;;;;;9.87;63.72;100289.34;5112526;28;20082;-59
2022/06/07 09:04:08;;;;;;;4.78;1.63;;;;;;;9.65;64.21;100267.88;5108065;28;20111;-60
2022/06/07 09:06:42;;;;;;;16.00;2.05;;;;;;;9.64;64.53;100283.56;5113044;28;20070;-61
2022/06/07 09:09:13;;;;;;;5.28;1.70;;;;;;;9.56;64.83;100298.41;5105055;28;20056;-60
2022/06/07 09:14:42;;;;;;;18.27;2.47;;;;;;;9.21;65.47;100277.09;5098867;28;20119;-61
2022/06/07 09:17:17;;;;;;;3.65;1.65;;;;;;;9.26;65.07;100322.22;5098935;28;20130;-61
2022/06/07 09:19:50;;;;;;;2.92;1.42;;;;;;;9.30;65.28;100302.19;5097615;28;20059;-61
2022/06/07 09:22:25;;;;;;;5.88;1.48;;;;;;;9.21;65.18;100302.25;5098957;28;20130;-60
2022/06/07 09:25:04;;;;;;;2.42;1.45;;;;;;;9.09;65.66;100318.91;5098040;28;20079;-60
2022/06/07 09:27:35;;;;;;;;;;;;;;;9.00;65.54;100319.84;5099669;28;20052;-60
2022/06/07 09:30:20;;;;;;;4.35;1.60;;;;;;;8.89;65.83;100315.63;5098155;28;19923;-60
2022/06/07 09:32:53;;;;;;;11.15;1.65;;;;;;;8.50;66.06;100258.63;5096977;28;20277;-60
2022/06/07 09:35:25;;;;;;;2.08;1.35;;;;;;;8.59;66.34;100322.81;5092266;28;20052;-59
2022/06/07 09:37:57;;;;;;;10.23;1.83;;;;;;;8.32;67.00;100329.03;5098749;28;20103;-59
2022/06/07 09:40:32;;;;;;;18.25;1.90;;;;;;;8.20;67.79;100336.03;5098911;28;20107;-59
2022/06/07 09:43:09;;;;;;;3.42;1.60;;;;;;;8.04;68.01;100347.41;5099256;28;20062;-60
2022/06/07 09:45:49;;;;;;;2.72;1.80;;;;;;;7.06;68.90;100225.53;5099123;28;20533;-60
2022/06/07 09:48:28;;;;;;;;;;;;;;;7.52;69.83;100345.84;5099956;28;20056;-58
2022/06/07 09:51:02;;;;;;;4.05;1.35;;;;;;;6.94;70.58;100303.50;5099201;28;19926;-59
2022/06/07 09:53:38;;;;;;;12.18;2.08;;;;;;;7.01;71.27;100337.25;5098449;28;20079;-59
2022/06/07 09:56:25;;;;;;;7.78;2.30;;;;;;;6.89;71.21;100332.94;5099171;28;20044;-59
2022/06/07 09:59:09;;;;;;;4.88;1.67;;;;;;;6.85;71.63;100345.94;5087066;28;21003;-59
2022/06/07 10:01:45;;;;;;;7.50;1.70;;;;;;;6.40;72.51;100312.13;5085049;28;20060;-60
2022/06/07 10:04:27;;;;;;;6.30;1.90;;;;;;;6.20;72.77;100334.59;5083898;28;20060;-61
2022/06/07 10:07:02;;;;;;;7.95;2.20;;;;;;;5.94;74.02;100343.16;5084922;28;20059;-60
2022/06/07 10:10:03;;;;;;;8.57;1.80;;;;;;;5.65;75.80;100365.47;5084861;28;20076;-60
2022/06/07 10:12:45;;;;;;;6.20;2.03;;;;;;;5.05;77.08;100329.69;5084826;28;20080;-60
2022/06/07 10:15:29;;;;;;;7.15;2.70;;;;;;;4.95;78.96;100366.72;5084810;28;20287;-60
2022/06/07 10:18:12;;;;;;;3.70;2.35;;;;;;;4.75;79.55;100359.66;5085074;28;20055;-59
2022/06/07 10:21:08;;;;;;;3.38;2.50;;;;;;;4.68;80.71;100368.22;5083396;28;20123;-60
2022/06/07 10:23:59;;;;;;;5.55;2.90;;;;;;;4.65;81.28;100362.16;5083817;28;20040;-60
2022/06/07 10:26:44;;;;;;;6.35;3.45;;;;;;;4.65;81.99;100356.97;5085607;28;20055;-60
2022/06/07 10:29:24;;;;;;;12.10;3.58;;;;;;;4.72;82.01;100359.63;5083816;28;20075;-60
2022/06/07 10:32:00;;;;;;;6.68;2.83;;;;;;;3.95;82.26;100264.03;5083861;28;20060;-60
2022/06/07 10:34:39;;;;;;;5.32;3.40;;;;;;;4.48;83.05;100375.78;5083872;28;20389;-60
2022/06/07 10:37:25;;;;;;;5.88;3.17;;;;;;;4.54;83.23;100369.78;5084653;28;20111;-60
2022/06/07 10:40:08;;;;;;;6.18;3.40;;;;;;;4.50;83.40;100388.75;5083992;28;20052;-60
2022/06/07 10:42:45;;;;;;;5.50;3.22;;;;;;;4.54;83.56;100391.38;5084249;28;20063;-61
2022/06/07 10:45:20;;;;;;;9.77;3.15;;;;;;;4.40;83.60;100392.09;5084163;28;20123;-61
2022/06/07 10:47:58;;;;;;;5.85;3.08;;;;;;;4.30;84.42;100391.97;5084128;28;20211;-61
2022/06/07 10:50:34;;;;;;;5.40;2.70;;;;;;;4.13;85.34;100383.16;5084114;28;20052;-59
2022/06/07 10:53:12;;;;;;;8.35;3.08;;;;;;;4.17;85.59;100400.47;5083855;28;20115;-60
2022/06/07 10:55:47;;;;;;;13.05;3.55;;;;;;;4.11;86.17;100400.38;5082773;28;20115;-59
2022/06/07 10:58:39;;;;;;;11.05;3.20;;;;;;;3.90;86.35;100369.97;5083308;28;20377;-59
2022/06/07 11:01:16;;;;;;;11.20;3.50;;;;;;;4.07;86.52;100398.63;5084009;28;20079;-60
2022/06/07 11:04:01;;;;;;;5.30;3.30;;;;;;;4.23;87.03;100405.69;5083635;28;20052;-60
2022/06/07 11:09:37;;;;;;;9.63;4.05;;;;;;;4.20;86.75;100416.00;5083590;28;20071;-60
2022/06/07 11:12:16;;;;;;;58.47;5.40;;;;;;;4.21;86.88;100397.03;5083969;28;20119;-60
2022/06/07 11:15:06;;;;;;;28.33;5.00;;;;;;;4.41;86.92;100401.56;5083604;28;20535;-60
2022/06/07 11:17:44;;;;;;;12.98;3.75;;;;;;;4.45;86.71;100380.94;5083729;28;20650;-60
2022/06/07 11:20:17;;;;;;;5.88;4.22;;;;;;;4.61;86.49;100391.44;5083661;28;20058;-59
2022/06/07 11:22:57;;;;;;;14.95;4.90;;;;;;;4.58;86.10;100392.28;5083297;28;20045;-59
2022/06/07 11:25:36;;;;;;;8.95;3.72;;;;;;;4.42;85.88;100380.00;5083519;28;20051;-59
2022/06/07 11:28:13;;;;;;;18.58;3.63;;;;;;;4.49;85.92;100423.22;5083116;28;20408;-60
2022/06/07 11:30:52;;;;;;;15.75;3.42;;;;;;;4.26;86.11;100372.09;5083420;28;20044;-60
2022/06/07 11:33:39;;;;;;;17.67;4.32;;;;;;;4.56;86.04;100417.25;5083175;28;20040;-60
2022/06/07 11:36:33;;;;;;;27.95;4.13;;;;;;;4.67;85.60;100415.66;5083653;28;20056;-60
2022/06/07 11:39:20;;;;;;;31.25;4.38;;;;;;;3.94;85.21;100345.00;5083542;28;20234;-60
2022/06/07 11:41:53;;;;;;;54.95;5.38;;;;;;;4.36;86.24;100411.00;5083139;28;20123;-60
2022/06/07 11:44:40;;;;;;;7.28;4.45;;;;;;;4.52;86.50;100424.13;5083278;28;20060;-59
2022/06/07 11:47:34;;;;;;;59.22;5.85;;;;;;;4.44;86.32;100414.53;5083757;28;20051;-59
2022/06/07 11:50:27;;;;;;;41.28;6.30;;;;;;;4.49;86.29;100408.59;5062324;28;20055;-60
2022/06/07 11:53:02;;;;;;;20.83;5.10;;;;;;;4.53;85.88;100420.69;5062867;28;20623;-60
2022/06/07 11:55:42;;;;;;;102.20;6.05;;;;;;;4.49;85.72;100423.22;5062449;28;20140;-60
2022/06/07 11:58:14;;;;;;;184.35;7.53;;;;;;;4.31;85.60;100424.75;5062708;28;20080;-60
2022/06/07 12:00:51;;;;;;;152.55;6.97;;;;;;;4.16;85.71;100413.38;5062706;28;20247;-60
2022/06/07 12:03:33;;;;;;;144.30;7.72;;;;;;;4.07;86.10;100424.47;5062215;28;20119;-60
2022/06/07 12:06:21;;;;;;;371.35;11.75;;;;;;;3.64;86.03;100387.69;5061980;28;20315;-60
2022/06/07 12:08:58;;;;;;;46.10;4.88;;;;;;;3.70;86.62;100412.78;5061904;28;20255;-60
2022/06/07 12:11:32;;;;;;;29.70;3.92;;;;;;;3.77;87.32;100436.16;5061741;28;20310;-60
2022/06/07 12:14:26;;;;;;;38.33;4.57;;;;;;;3.84;87.71;100432.81;5062793;28;20137;-60
2022/06/07 12:17:00;;;;;;;17.88;5.88;;;;;;;3.91;88.50;100432.88;5054178;28;20094;-60
2022/06/07 12:19:32;;;;;;;14.07;5.10;;;;;;;3.94;88.70;100425.16;5062675;28;20052;-60